createdAt,value
2022-11-25T00:01:19.790Z,17.20
2022-11-25T00:03:48.059Z,13.83
2022-11-25T00:06:21.044Z,12.67
2022-11-25T00:08:50.548Z,15.00
2022-11-25T00:11:18.379Z,14.47
2022-11-25T00:13:46.663Z,15.40
2022-11-25T00:16:16.782Z,19.70
2022-11-25T00:18:49.096Z,14.37
2022-11-25T00:21:18.427Z,18.13
2022-11-25T00:23:49.947Z,16.80
2022-11-25T00:26:17.381Z,15.93
2022-11-25T00:28:46.651Z,16.10
2022-11-25T00:31:21.893Z,18.47
2022-11-25T00:33:48.940Z,18.67
2022-11-25T00:36:23.707Z,17.37
2022-11-25T00:38:59.216Z,17.40
2022-11-25T00:41:46.202Z,18.43
2022-11-25T00:44:34.329Z,15.90
2022-11-25T00:47:06.239Z,17.57
2022-11-25T00:49:33.457Z,20.00
2022-11-25T00:52:00.475Z,16.23
2022-11-25T00:54:27.264Z,18.50
2022-11-25T00:56:54.186Z,15.50
2022-11-25T00:59:20.956Z,15.83
2022-11-25T01:01:47.914Z,15.07
2022-11-25T01:04:15.204Z,17.10
2022-11-25T01:06:41.978Z,14.20
2022-11-25T01:09:10.743Z,13.90
2022-11-25T01:11:37.755Z,18.60
2022-11-25T01:14:04.521Z,15.30
2022-11-25T01:16:31.969Z,15.53
2022-11-25T01:19:00.209Z,13.70
2022-11-25T01:21:30.289Z,13.27
2022-11-25T01:23:58.895Z,16.53
2022-11-25T01:26:26.068Z,12.93
2022-11-25T01:28:58.391Z,13.90
2022-11-25T01:31:27.343Z,14.40
2022-11-25T01:34:00.247Z,12.53
2022-11-25T01:36:27.583Z,12.73
2022-11-25T01:38:57.416Z,13.27
2022-11-25T01:41:26.594Z,12.57
2022-11-25T01:44:07.601Z,12.00
2022-11-25T01:47:14.807Z,16.00
2022-11-25T01:50:05.711Z,14.07
2022-11-25T01:52:39.262Z,13.60
2022-11-25T01:55:17.595Z,12.83
2022-11-25T01:58:05.145Z,13.33
2022-11-25T02:00:32.097Z,13.87
2022-11-25T02:02:59.159Z,17.43
2022-11-25T02:05:42.343Z,14.07
2022-11-25T02:08:10.672Z,14.10
2022-11-25T02:10:38.266Z,16.90
2022-11-25T02:13:05.059Z,13.93
2022-11-25T02:15:34.824Z,14.27
2022-11-25T02:18:01.833Z,13.30
2022-11-25T02:20:28.845Z,12.93
2022-11-25T02:23:26.367Z,14.77
2022-11-25T02:25:54.085Z,14.70
2022-11-25T02:28:27.160Z,14.83
2022-11-25T02:30:54.299Z,15.70
2022-11-25T02:33:21.311Z,14.00
2022-11-25T02:35:57.603Z,14.30
2022-11-25T02:38:42.541Z,12.20
2022-11-25T02:41:14.880Z,14.87
2022-11-25T02:43:41.988Z,13.87
2022-11-25T02:46:12.006Z,13.80
2022-11-25T02:49:10.184Z,13.07
2022-11-25T02:51:30.575Z,14.20
2022-11-25T02:53:57.634Z,15.00
2022-11-25T02:56:28.973Z,13.50
2022-11-25T02:58:56.357Z,13.83
2022-11-25T03:01:23.841Z,13.67
2022-11-25T03:03:50.684Z,15.40
2022-11-25T03:06:17.316Z,17.87
2022-11-25T03:08:44.186Z,12.50
2022-11-25T03:11:11.019Z,13.73
2022-11-25T03:13:37.806Z,15.67
2022-11-25T03:16:05.016Z,16.73
2022-11-25T03:18:32.234Z,12.37
2022-11-25T03:20:58.919Z,13.80
2022-11-25T03:23:26.651Z,13.67
2022-11-25T03:25:53.605Z,12.80
2022-11-25T03:28:20.283Z,14.00
2022-11-25T03:30:46.999Z,13.17
2022-11-25T03:33:13.793Z,14.17
2022-11-25T03:35:40.571Z,13.53
2022-11-25T03:38:07.369Z,14.80
2022-11-25T03:40:34.130Z,16.30
2022-11-25T03:43:00.917Z,15.40
2022-11-25T03:45:27.584Z,14.40
2022-11-25T03:47:54.368Z,14.23
2022-11-25T03:50:21.248Z,15.77
2022-11-25T03:52:47.982Z,14.07
2022-11-25T03:55:15.059Z,15.53
2022-11-25T03:57:41.877Z,14.00
2022-11-25T04:00:09.425Z,14.30
2022-11-25T04:02:36.180Z,14.43
2022-11-25T04:05:03.234Z,13.37
2022-11-25T04:07:30.064Z,16.17
2022-11-25T04:09:56.766Z,13.80
2022-11-25T04:12:42.333Z,15.63
2022-11-25T04:15:09.421Z,13.67
2022-11-25T04:17:36.175Z,14.30
2022-11-25T04:20:03.321Z,14.83
2022-11-25T04:22:30.059Z,15.60
2022-11-25T04:24:56.854Z,13.57
2022-11-25T04:27:23.716Z,13.33
2022-11-25T04:29:50.519Z,14.73
2022-11-25T04:32:17.338Z,13.20
2022-11-25T04:34:44.163Z,12.40
2022-11-25T04:37:11.107Z,13.87
2022-11-25T04:39:37.930Z,13.43
2022-11-25T04:42:23.409Z,12.03
2022-11-25T04:45:14.152Z,10.43
2022-11-25T04:47:37.150Z,9.87
2022-11-25T04:50:05.341Z,11.03
2022-11-25T04:52:33.590Z,11.83
2022-11-25T04:55:00.305Z,10.70
2022-11-25T04:57:27.078Z,11.40
2022-11-25T04:59:53.781Z,12.10
2022-11-25T05:02:23.151Z,10.73
2022-11-25T05:04:51.987Z,11.83
2022-11-25T05:07:20.638Z,11.50
2022-11-25T05:09:48.043Z,13.33
2022-11-25T05:12:19.283Z,12.63
2022-11-25T05:14:46.320Z,12.80
2022-11-25T05:17:16.018Z,13.00
2022-11-25T05:19:42.988Z,12.03
2022-11-25T05:22:14.667Z,10.77
2022-11-25T05:24:41.396Z,11.53
2022-11-25T05:27:08.571Z,11.27
2022-11-25T05:29:35.474Z,11.50
2022-11-25T05:32:02.236Z,11.10
2022-11-25T05:34:29.057Z,11.80
2022-11-25T05:36:55.904Z,14.20
2022-11-25T05:39:22.699Z,10.53
2022-11-25T05:41:49.459Z,11.33
2022-11-25T05:44:22.486Z,10.87
2022-11-25T05:46:49.777Z,10.97
2022-11-25T05:49:17.186Z,11.67
2022-11-25T05:51:44.030Z,10.90
2022-11-25T05:54:10.999Z,11.17
2022-11-25T05:56:37.882Z,11.10
2022-11-25T05:59:05.591Z,12.33
2022-11-25T06:01:33.571Z,11.60
2022-11-25T06:04:04.855Z,11.57
2022-11-25T06:06:32.327Z,11.90
2022-11-25T06:08:59.410Z,12.80
2022-11-25T06:11:26.249Z,15.53
2022-11-25T06:13:53.117Z,12.03
2022-11-25T06:16:22.349Z,13.37
2022-11-25T06:18:49.654Z,13.90
2022-11-25T06:21:17.337Z,11.47
2022-11-25T06:23:47.185Z,11.00
2022-11-25T06:26:22.537Z,12.80
2022-11-25T06:28:52.388Z,13.47
2022-11-25T06:31:21.538Z,14.00
2022-11-25T06:33:50.234Z,13.80
2022-11-25T06:36:18.484Z,14.90
2022-11-25T06:38:51.665Z,15.63
2022-11-25T06:41:19.174Z,14.30
2022-11-25T06:43:46.003Z,14.43
2022-11-25T06:46:18.546Z,12.87
2022-11-25T06:48:49.721Z,13.33
2022-11-25T06:51:17.105Z,13.73
2022-11-25T06:53:45.014Z,15.43
2022-11-25T06:56:18.694Z,15.03
2022-11-25T06:58:47.360Z,15.80
2022-11-25T07:01:22.988Z,13.23
2022-11-25T07:03:53.013Z,15.40
2022-11-25T07:06:20.807Z,14.20
2022-11-25T07:08:48.209Z,14.90
2022-11-25T07:11:26.396Z,13.67
2022-11-25T07:13:55.521Z,15.90
2022-11-25T07:16:22.441Z,17.20
2022-11-25T07:18:49.665Z,13.63
2022-11-25T07:21:20.051Z,13.53
2022-11-25T07:23:47.238Z,13.27
2022-11-25T07:26:16.664Z,13.30
2022-11-25T07:28:44.337Z,15.07
2022-11-25T07:31:24.433Z,13.77
2022-11-25T07:33:55.888Z,13.27
2022-11-25T07:36:22.722Z,13.83
2022-11-25T07:38:49.517Z,12.80
2022-11-25T07:41:19.739Z,12.77
2022-11-25T07:43:58.554Z,12.30
2022-11-25T07:46:37.183Z,12.80
2022-11-25T07:49:06.774Z,13.80
2022-11-25T07:51:37.621Z,12.80
2022-11-25T07:54:06.917Z,14.70
2022-11-25T07:56:39.089Z,16.00
2022-11-25T07:59:07.220Z,14.93
2022-11-25T08:01:34.086Z,16.30
2022-11-25T08:04:01.058Z,15.67
2022-11-25T08:06:29.931Z,14.90
2022-11-25T08:08:58.041Z,16.03
2022-11-25T08:11:27.336Z,15.30
2022-11-25T08:13:55.122Z,12.53
2022-11-25T08:16:24.297Z,13.00
2022-11-25T08:18:51.635Z,16.20
2022-11-25T08:21:18.872Z,16.70
2022-11-25T08:23:52.405Z,12.87
2022-11-25T08:26:22.856Z,16.67
2022-11-25T08:28:50.538Z,15.47
2022-11-25T08:31:24.139Z,13.17
2022-11-25T08:33:51.853Z,12.47
2022-11-25T08:36:20.026Z,13.27
2022-11-25T08:38:50.390Z,11.00
2022-11-25T08:41:30.174Z,12.90
2022-11-25T08:43:58.951Z,11.23
2022-11-25T08:46:28.479Z,12.33
2022-11-25T08:48:55.879Z,13.60
2022-11-25T08:51:26.446Z,14.00
2022-11-25T08:53:53.251Z,11.03
2022-11-25T08:56:25.912Z,12.00
2022-11-25T08:58:54.053Z,12.50
2022-11-25T09:01:22.174Z,11.70
2022-11-25T09:03:51.758Z,13.80
2022-11-25T09:06:19.544Z,11.70
2022-11-25T09:08:46.364Z,11.70
2022-11-25T09:11:13.948Z,12.17
2022-11-25T09:13:40.827Z,13.93
2022-11-25T09:16:08.995Z,14.63
2022-11-25T09:18:37.144Z,14.60
2022-11-25T09:21:13.313Z,15.57
2022-11-25T09:23:40.210Z,14.57
2022-11-25T09:26:08.313Z,12.27
2022-11-25T09:28:37.756Z,12.03
2022-11-25T09:31:09.586Z,12.10
2022-11-25T09:33:37.050Z,13.00
2022-11-25T09:36:05.955Z,15.00
2022-11-25T09:38:33.135Z,12.03
2022-11-25T09:41:16.580Z,12.53
2022-11-25T09:44:17.530Z,14.73
2022-11-25T09:47:03.858Z,12.20
2022-11-25T09:49:31.270Z,9.60
2022-11-25T09:52:13.309Z,10.33
2022-11-25T09:54:45.245Z,8.63
2022-11-25T09:57:27.026Z,9.97
2022-11-25T10:00:10.855Z,8.47
2022-11-25T10:02:55.719Z,12.13
2022-11-25T10:05:31.405Z,10.80
2022-11-25T10:08:03.326Z,10.10
2022-11-25T10:10:53.138Z,12.13
2022-11-25T10:13:45.992Z,9.70
2022-11-25T10:16:28.675Z,10.03
2022-11-25T10:19:19.758Z,14.80
2022-11-25T10:21:47.081Z,14.03
2022-11-25T10:24:17.702Z,13.13
2022-11-25T10:26:49.065Z,13.47
2022-11-25T10:29:27.050Z,14.30
2022-11-25T10:32:01.390Z,16.30
2022-11-25T10:34:42.162Z,14.77
2022-11-25T10:37:27.393Z,11.73
2022-11-25T10:39:54.206Z,10.97
2022-11-25T10:42:27.060Z,11.10
2022-11-25T10:44:54.984Z,10.80
2022-11-25T10:47:33.594Z,9.77
2022-11-25T10:50:03.796Z,12.77
2022-11-25T10:52:34.348Z,12.40
2022-11-25T10:55:20.883Z,11.30
2022-11-25T10:57:47.948Z,14.73
2022-11-25T11:00:36.535Z,9.20
2022-11-25T11:03:23.265Z,9.70
2022-11-25T11:05:52.377Z,10.23
2022-11-25T11:08:22.851Z,12.17
2022-11-25T11:11:19.409Z,12.03
2022-11-25T11:13:47.106Z,9.23
2022-11-25T11:16:39.146Z,9.03
2022-11-25T11:19:06.234Z,9.40
2022-11-25T11:21:41.690Z,8.43
2022-11-25T11:24:37.921Z,15.10
2022-11-25T11:27:25.161Z,10.97
2022-11-25T11:30:10.475Z,10.20
2022-11-25T11:32:40.790Z,10.70
2022-11-25T11:35:27.819Z,10.20
2022-11-25T11:38:01.630Z,14.03
2022-11-25T11:40:38.970Z,13.33
2022-11-25T11:43:20.637Z,11.10
2022-11-25T11:46:05.933Z,13.43
2022-11-25T11:48:32.658Z,13.53
2022-11-25T11:51:28.218Z,9.47
2022-11-25T11:54:27.195Z,9.67
2022-11-25T11:56:59.942Z,9.57
2022-11-25T11:59:35.984Z,8.57
2022-11-25T12:02:26.348Z,8.87
2022-11-25T12:05:04.848Z,9.60
2022-11-25T12:07:54.413Z,11.90
2022-11-25T12:10:27.094Z,8.90
2022-11-25T12:12:59.210Z,9.00
2022-11-25T12:16:00.581Z,9.60
2022-11-25T12:18:33.474Z,6.77
2022-11-25T12:21:05.573Z,8.77
2022-11-25T12:23:44.814Z,10.67
2022-11-25T12:26:40.401Z,10.13
2022-11-25T12:29:12.500Z,11.10
2022-11-25T12:31:45.950Z,6.23
2022-11-25T12:34:21.751Z,9.87
2022-11-25T12:36:49.547Z,15.73
2022-11-25T12:39:16.225Z,17.83
2022-11-25T12:41:49.013Z,7.60
2022-11-25T12:44:40.421Z,6.90
2022-11-25T12:47:11.110Z,8.57
2022-11-25T12:49:46.951Z,8.40
2022-11-25T12:52:19.648Z,9.73
2022-11-25T12:55:03.965Z,7.57
2022-11-25T12:57:51.813Z,13.20
2022-11-25T13:00:47.072Z,10.20
2022-11-25T13:03:51.429Z,12.17
2022-11-25T13:06:21.048Z,9.70
2022-11-25T13:09:06.514Z,5.77
2022-11-25T13:11:48.640Z,6.47
2022-11-25T13:14:28.021Z,6.23
2022-11-25T13:16:57.404Z,7.90
2022-11-25T13:19:24.672Z,7.80
2022-11-25T13:22:02.703Z,6.40
2022-11-25T13:24:34.062Z,8.47
2022-11-25T13:27:01.864Z,7.80
2022-11-25T13:29:28.671Z,6.30
2022-11-25T13:32:02.582Z,7.37
2022-11-25T13:34:30.867Z,5.00
2022-11-25T13:37:02.574Z,6.90
2022-11-25T13:39:38.536Z,6.77
2022-11-25T13:42:26.682Z,6.50
2022-11-25T13:44:54.846Z,7.20
2022-11-25T13:47:44.860Z,7.07
2022-11-25T13:50:21.744Z,5.17
2022-11-25T13:53:08.118Z,6.43
2022-11-25T13:55:41.420Z,4.93
2022-11-25T13:58:11.446Z,5.27
2022-11-25T14:00:59.547Z,9.47
2022-11-25T14:03:29.063Z,5.53
2022-11-25T14:06:13.450Z,5.93
2022-11-25T14:08:54.503Z,6.50
2022-11-25T14:11:44.132Z,11.93
2022-11-25T14:14:25.963Z,7.50
2022-11-25T14:17:14.434Z,8.03
2022-11-25T14:20:04.446Z,5.63
2022-11-25T14:22:43.347Z,8.63
2022-11-25T14:25:23.279Z,7.30
2022-11-25T14:28:03.851Z,8.37
2022-11-25T14:30:32.642Z,6.27
2022-11-25T14:33:04.052Z,10.23
2022-11-25T14:35:45.263Z,6.27
2022-11-25T14:38:42.382Z,6.17
2022-11-25T14:41:17.776Z,6.37
2022-11-25T14:43:50.670Z,6.33
2022-11-25T14:46:22.277Z,10.67
2022-11-25T14:49:00.565Z,7.20
2022-11-25T14:51:33.910Z,8.73
2022-11-25T14:54:01.008Z,5.30
2022-11-25T14:56:33.846Z,7.80
2022-11-25T14:59:01.170Z,7.37
2022-11-25T15:01:30.272Z,11.03
2022-11-25T15:04:12.149Z,7.40
2022-11-25T15:06:48.130Z,8.60
2022-11-25T15:09:25.361Z,8.40
2022-11-25T15:12:04.855Z,5.73
2022-11-25T15:14:38.826Z,5.97
2022-11-25T15:17:17.260Z,6.97
2022-11-25T15:19:44.344Z,8.50
2022-11-25T15:22:29.248Z,5.83
2022-11-25T15:25:08.107Z,6.87
2022-11-25T15:27:34.935Z,8.20
2022-11-25T15:30:01.728Z,6.60
2022-11-25T15:32:30.247Z,5.93
2022-11-25T15:35:00.448Z,6.53
2022-11-25T15:37:28.251Z,7.77
2022-11-25T15:40:36.696Z,7.47
2022-11-25T15:43:07.357Z,7.03
2022-11-25T15:45:46.190Z,7.10
2022-11-25T15:48:37.459Z,7.87
2022-11-25T15:51:20.789Z,5.53
2022-11-25T15:53:54.346Z,5.97
2022-11-25T15:56:25.503Z,6.63
2022-11-25T15:58:55.086Z,8.90
2022-11-25T16:01:24.878Z,9.03
2022-11-25T16:03:52.359Z,6.17
2022-11-25T16:06:22.217Z,8.43
2022-11-25T16:08:57.441Z,7.50
2022-11-25T16:11:25.969Z,9.00
2022-11-25T16:13:53.672Z,10.53
2022-11-25T16:16:24.699Z,4.80
2022-11-25T16:19:09.907Z,7.67
2022-11-25T16:21:36.783Z,9.57
2022-11-25T16:24:06.595Z,7.30
2022-11-25T16:26:37.852Z,8.90
2022-11-25T16:29:17.715Z,8.50
2022-11-25T16:31:44.578Z,6.90
2022-11-25T16:34:20.191Z,8.60
2022-11-25T16:36:47.223Z,5.23
2022-11-25T16:39:14.347Z,8.10
2022-11-25T16:41:42.457Z,8.83
2022-11-25T16:44:27.865Z,10.07
2022-11-25T16:46:55.328Z,8.40
2022-11-25T16:49:22.785Z,8.13
2022-11-25T16:51:54.356Z,8.10
2022-11-25T16:54:22.328Z,7.00
2022-11-25T16:56:52.365Z,8.03
2022-11-25T16:59:41.052Z,8.20
2022-11-25T17:02:22.311Z,8.67
2022-11-25T17:04:49.876Z,9.10
2022-11-25T17:07:34.526Z,8.43
2022-11-25T17:10:02.039Z,7.00
2022-11-25T17:12:32.955Z,7.03
2022-11-25T17:15:01.177Z,6.50
2022-11-25T17:17:29.001Z,6.00
2022-11-25T17:19:56.027Z,7.80
2022-11-25T17:22:26.291Z,8.00
2022-11-25T17:24:53.915Z,15.73
2022-11-25T17:27:28.698Z,29.97
2022-11-25T17:29:57.857Z,22.57
2022-11-25T17:32:25.966Z,21.70
2022-11-25T17:34:54.306Z,24.70
2022-11-25T17:37:23.845Z,30.10
2022-11-25T17:39:54.419Z,33.17
2022-11-25T17:42:30.214Z,19.63
2022-11-25T17:44:57.270Z,18.70
2022-11-25T17:47:24.120Z,14.60
2022-11-25T17:49:52.012Z,16.73
2022-11-25T17:52:18.987Z,14.50
2022-11-25T17:54:45.831Z,21.03
2022-11-25T17:57:17.729Z,26.77
2022-11-25T17:59:44.546Z,10.93
2022-11-25T18:02:22.284Z,16.37
2022-11-25T18:04:49.791Z,9.33
2022-11-25T18:07:16.892Z,14.10
2022-11-25T18:09:44.587Z,16.70
2022-11-25T18:12:23.231Z,9.87
2022-11-25T18:14:50.141Z,11.90
2022-11-25T18:17:19.108Z,12.30
2022-11-25T18:19:52.911Z,12.27
2022-11-25T18:22:21.645Z,12.97
2022-11-25T18:24:48.444Z,10.17
2022-11-25T18:27:25.065Z,12.73
2022-11-25T18:29:53.113Z,15.67
2022-11-25T18:32:21.075Z,15.10
2022-11-25T18:34:48.151Z,12.10
2022-11-25T18:37:15.042Z,19.30
2022-11-25T18:39:42.443Z,36.13
2022-11-25T18:42:22.726Z,49.50
2022-11-25T18:44:49.754Z,51.97
2022-11-25T18:47:16.712Z,19.63
2022-11-25T18:49:44.105Z,23.20
2022-11-25T18:52:11.287Z,14.70
2022-11-25T18:54:38.625Z,12.50
2022-11-25T18:57:06.029Z,8.20
2022-11-25T18:59:35.444Z,5.47
2022-11-25T19:02:02.839Z,10.03
2022-11-25T19:04:30.059Z,12.47
2022-11-25T19:06:56.936Z,7.83
2022-11-25T19:09:23.890Z,9.07
2022-11-25T19:11:54.369Z,9.03
2022-11-25T19:14:32.184Z,11.20
2022-11-25T19:17:06.418Z,12.77
2022-11-25T19:19:33.794Z,11.80
2022-11-25T19:22:02.664Z,17.30
2022-11-25T19:24:29.685Z,13.07
2022-11-25T19:26:57.691Z,24.10
2022-11-25T19:29:43.911Z,27.73
2022-11-25T19:32:25.818Z,13.83
2022-11-25T19:34:57.652Z,8.60
2022-11-25T19:37:24.670Z,12.87
2022-11-25T19:39:53.089Z,10.00
2022-11-25T19:42:20.355Z,14.33
2022-11-25T19:44:47.951Z,8.43
2022-11-25T19:47:26.996Z,10.17
2022-11-25T19:49:58.520Z,9.50
2022-11-25T19:52:36.103Z,10.67
2022-11-25T19:55:17.637Z,14.10
2022-11-25T19:57:44.846Z,8.60
2022-11-25T20:00:14.513Z,8.80
2022-11-25T20:02:42.493Z,9.70
2022-11-25T20:05:10.479Z,11.07
2022-11-25T20:07:38.614Z,10.80
2022-11-25T20:10:17.094Z,9.00
2022-11-25T20:12:44.608Z,9.00
2022-11-25T20:15:12.603Z,7.63
2022-11-25T20:17:44.330Z,10.03
2022-11-25T20:20:17.970Z,11.20
2022-11-25T20:22:53.405Z,9.03
2022-11-25T20:25:20.681Z,8.63
2022-11-25T20:27:48.078Z,10.73
2022-11-25T20:30:21.447Z,12.20
2022-11-25T20:32:48.565Z,10.80
2022-11-25T20:35:15.738Z,12.10
2022-11-25T20:37:58.298Z,7.97
2022-11-25T20:40:35.230Z,8.17
2022-11-25T20:43:02.683Z,11.27
2022-11-25T20:45:29.643Z,12.10
2022-11-25T20:47:56.795Z,15.27
2022-11-25T20:50:24.090Z,9.03
2022-11-25T20:52:51.412Z,10.20
2022-11-25T20:55:23.821Z,8.77
2022-11-25T20:57:52.697Z,10.10
2022-11-25T21:00:26.535Z,17.00
2022-11-25T21:02:55.122Z,11.10
2022-11-25T21:05:22.606Z,9.33
2022-11-25T21:07:50.913Z,9.63
2022-11-25T21:10:34.821Z,8.83
2022-11-25T21:13:09.578Z,12.23
2022-11-25T21:15:36.971Z,11.60
2022-11-25T21:18:04.295Z,8.93
2022-11-25T21:20:31.332Z,7.47
2022-11-25T21:22:58.893Z,9.07
2022-11-25T21:25:26.681Z,12.07
2022-11-25T21:27:53.996Z,12.23
2022-11-25T21:30:34.421Z,11.17
2022-11-25T21:33:01.895Z,12.03
2022-11-25T21:35:34.922Z,12.63
2022-11-25T21:38:07.316Z,12.17
2022-11-25T21:40:38.718Z,8.90
2022-11-25T21:43:07.068Z,10.33
2022-11-25T21:45:34.010Z,9.00
2022-11-25T21:48:00.832Z,9.87
2022-11-25T21:50:29.986Z,12.17
2022-11-25T21:52:57.583Z,12.10
2022-11-25T21:55:25.158Z,12.20
2022-11-25T21:57:52.081Z,10.63
2022-11-25T22:00:24.947Z,10.97
2022-11-25T22:02:52.775Z,11.83
2022-11-25T22:05:21.531Z,11.20
2022-11-25T22:07:48.646Z,17.03
2022-11-25T22:10:16.733Z,12.83
2022-11-25T22:12:46.046Z,11.27
2022-11-25T22:15:21.081Z,10.40
2022-11-25T22:17:56.043Z,11.10
2022-11-25T22:20:34.156Z,10.10
2022-11-25T22:23:01.693Z,12.13
2022-11-25T22:25:31.309Z,9.70
2022-11-25T22:27:58.300Z,11.80
2022-11-25T22:30:25.197Z,12.00
2022-11-25T22:33:03.482Z,9.90
2022-11-25T22:35:30.298Z,10.27
2022-11-25T22:37:57.046Z,11.27
2022-11-25T22:40:24.288Z,12.03
2022-11-25T22:42:52.084Z,11.63
2022-11-25T22:45:32.790Z,11.70
2022-11-25T22:48:03.231Z,9.70
2022-11-25T22:50:32.176Z,10.50
2022-11-25T22:53:00.760Z,13.53
2022-11-25T22:55:33.256Z,13.73
2022-11-25T22:58:01.857Z,12.53
2022-11-25T23:00:32.600Z,9.50
2022-11-25T23:03:00.550Z,11.10
2022-11-25T23:05:33.398Z,12.20
2022-11-25T23:08:21.053Z,15.17
2022-11-25T23:10:48.841Z,14.50
2022-11-25T23:13:20.556Z,11.30
2022-11-25T23:15:53.267Z,11.63
2022-11-25T23:18:38.941Z,16.97
2022-11-25T23:21:14.237Z,12.30
2022-11-25T23:23:41.081Z,13.60
2022-11-25T23:26:10.898Z,15.17
2022-11-25T23:28:37.727Z,11.93
2022-11-25T23:31:05.293Z,14.50
2022-11-25T23:33:41.036Z,17.73
2022-11-25T23:36:39.767Z,17.93
2022-11-25T23:39:06.659Z,13.47
2022-11-25T23:41:34.600Z,16.27
2022-11-25T23:44:20.481Z,10.27
2022-11-25T23:46:48.381Z,12.93
2022-11-25T23:49:33.388Z,13.00
2022-11-25T23:52:07.525Z,11.13
2022-11-25T23:54:45.909Z,11.60
2022-11-25T23:57:20.043Z,14.40
2022-11-25T23:59:47.889Z,17.47
